Time;durP1;ratioP1;P1;durP2;ratioP2;P2;SDS_P1;SDS_P2;PMS_P1;PMS_P2;Temp;Humidity;BMP_temperature;BMP_pressure;BME280_temperature;BME280_humidity;BME280_pressure;Samples;Min_cycle;Max_cycle;Signal;HPM_P1;HPM_P2
2022/06/20 05:16:18;;;;;;;3.45;1.63;;;;;;;;;;5068715;28;20457;-67
2022/06/20 05:18:45;;;;;;;4.57;2.10;;;;;;;;;;5068590;28;20036;-65
2022/06/20 05:21:24;;;;;;;3.03;1.70;;;;;;;;;;5068479;28;20124;-71
2022/06/20 05:23:53;;;;;;;3.10;1.60;;;;;;;;;;5068429;28;20029;-66
2022/06/20 05:26:22;;;;;;;4.07;1.77;;;;;;;;;;5068554;28;20028;-68
2022/06/20 05:28:50;;;;;;;9.07;2.22;;;;;;;;;;5068432;28;20068;-70
2022/06/20 05:31:17;;;;;;;3.47;1.77;;;;;;;;;;5068348;28;20494;-67
2022/06/20 05:33:46;;;;;;;2.17;1.60;;;;;;;;;;5068432;28;20068;-69
2022/06/20 05:36:12;;;;;;;7.65;2.03;;;;;;;;;;5068297;28;20435;-70
2022/06/20 05:38:47;;;;;;;6.90;2.10;;;;;;;;;;5068187;28;20070;-70
2022/06/20 05:41:15;;;;;;;4.18;1.70;;;;;;;;;;5068389;28;20036;-67
2022/06/20 05:43:41;;;;;;;4.28;1.70;;;;;;;;;;5067734;28;20020;-67
2022/06/20 05:46:11;;;;;;;6.45;2.00;;;;;;;;;;5068253;28;20060;-69
2022/06/20 05:48:40;;;;;;;6.15;1.75;;;;;;;;;;5067961;28;20476;-66
2022/06/20 05:51:08;;;;;;;7.43;2.33;;;;;;;;;;5068135;28;20134;-66
2022/06/20 05:53:40;;;;;;;15.13;3.15;;;;;;;;;;5067771;28;20033;-65
2022/06/20 05:56:13;;;;;;;5.13;2.00;;;;;;;;;;5066924;28;20044;-66
2022/06/20 05:58:42;;;;;;;5.63;1.90;;;;;;;;;;5067780;28;20025;-65
2022/06/20 06:01:13;;;;;;;2.45;1.65;;;;;;;;;;5068046;28;20047;-65
2022/06/20 06:03:39;;;;;;;3.63;1.85;;;;;;;;;;5067311;28;20584;-64
2022/06/20 06:06:08;;;;;;;3.72;1.80;;;;;;;;;;5068891;28;20104;-66
2022/06/20 06:08:37;;;;;;;4.28;2.20;;;;;;;;;;5083856;28;20062;-64
2022/06/20 06:11:03;;;;;;;4.35;1.90;;;;;;;;;;5073497;28;20043;-66
2022/06/20 06:13:52;;;;;;;5.68;1.92;;;;;;;;;;5087754;28;20024;-62
2022/06/20 06:19:11;;;;;;;6.28;1.73;;;;;;;;;;5067776;28;20035;-64
2022/06/20 06:21:38;;;;;;;6.13;1.80;;;;;;;;;;5058884;28;20028;-64
2022/06/20 06:24:06;;;;;;;4.07;1.90;;;;;;;;;;5043349;28;20037;-63
2022/06/20 06:26:32;;;;;;;4.47;1.95;;;;;;;;;;5038639;28;20026;-63
2022/06/20 06:28:58;;;;;;;7.93;2.25;;;;;;;;;;5032613;28;20053;-64
2022/06/20 06:31:27;;;;;;;7.93;2.75;;;;;;;;;;5032915;28;20026;-64
2022/06/20 06:33:59;;;;;;;3.28;1.83;;;;;;;;;;5032770;28;20116;-65
2022/06/20 06:36:30;;;;;;;3.35;1.85;;;;;;;;;;5030616;28;20057;-64
2022/06/20 06:39:03;;;;;;;8.35;1.90;;;;;;;;;;5033129;28;20021;-63
2022/06/20 06:41:31;;;;;;;4.80;1.65;;;;;;;;;;5031142;28;20029;-64
2022/06/20 06:43:58;;;;;;;5.13;1.85;;;;;;;;;;5032471;28;20388;-63
2022/06/20 06:46:34;;;;;;;3.22;1.80;;;;;;;;;;5030687;28;20084;-64
2022/06/20 06:49:18;;;;;;;6.03;2.08;;;;;;;;;;5032889;28;20026;-63
2022/06/20 06:52:00;;;;;;;5.95;1.77;;;;;;;;;;5034125;28;20056;-62
2022/06/20 06:54:43;;;;;;;5.38;1.98;;;;;;;;;;5032816;28;20037;-63
2022/06/20 06:57:09;;;;;;;3.88;1.80;;;;;;;;;;5033268;28;20495;-63
2022/06/20 06:59:38;;;;;;;3.95;2.05;;;;;;;;;;5033011;28;20021;-62
2022/06/20 07:02:11;;;;;;;2.92;1.75;;;;;;;;;;5033259;28;20056;-66
2022/06/20 07:04:43;;;;;;;5.97;1.92;;;;;;;;;;5032978;28;20033;-63
2022/06/20 07:07:22;;;;;;;3.53;2.03;;;;;;;;;;5033397;28;20428;-63
2022/06/20 07:09:50;;;;;;;6.35;2.30;;;;;;;;;;5033331;28;20477;-67
2022/06/20 07:12:32;;;;;;;6.85;2.60;;;;;;;;;;5033140;28;20028;-64
2022/06/20 07:15:11;;;;;;;6.05;2.03;;;;;;;;;;5032792;28;20050;-63
2022/06/20 07:17:43;;;;;;;10.95;2.47;;;;;;;;;;5033151;28;20481;-65
2022/06/20 07:20:09;;;;;;;3.53;2.00;;;;;;;;;;5033293;28;20473;-66
2022/06/20 07:22:37;;;;;;;3.80;2.05;;;;;;;;;;5032976;28;20052;-66
2022/06/20 07:25:03;;;;;;;2.63;1.80;;;;;;;;;;5032519;28;20057;-64
2022/06/20 07:27:29;;;;;;;3.60;1.90;;;;;;;;;;5032849;28;20370;-64
2022/06/20 07:30:05;;;;;;;10.32;2.28;;;;;;;;;;5032654;28;20091;-63
2022/06/20 07:32:43;;;;;;;4.15;1.90;;;;;;;;;;5032878;28;20094;-63
2022/06/20 07:35:13;;;;;;;4.07;2.20;;;;;;;;;;5032497;28;20049;-68
2022/06/20 07:37:43;;;;;;;5.60;2.08;;;;;;;;;;5031665;28;20017;-65
2022/06/20 07:40:12;;;;;;;3.67;2.17;;;;;;;;;;5032802;28;20033;-63
2022/06/20 07:42:44;;;;;;;5.53;2.25;;;;;;;;;;5032823;28;20026;-63
2022/06/20 07:45:16;;;;;;;4.57;1.80;;;;;;;;;;5032313;28;20059;-64
2022/06/20 07:47:48;;;;;;;3.28;2.20;;;;;;;;;;5012729;28;20030;-62
2022/06/20 07:50:27;;;;;;;3.58;2.00;;;;;;;;;;5012751;28;20382;-64
2022/06/20 07:52:59;;;;;;;5.10;2.05;;;;;;;;;;5012415;28;20120;-62
2022/06/20 07:55:27;;;;;;;5.53;2.85;;;;;;;;;;5012534;28;20080;-64
2022/06/20 07:58:03;;;;;;;5.32;3.30;;;;;;;;;;5012408;28;20074;-64
2022/06/20 08:00:31;;;;;;;3.13;1.88;;;;;;;;;;5012672;28;20032;-65
2022/06/20 08:02:57;;;;;;;5.13;2.58;;;;;;;;;;5012295;28;20029;-65
2022/06/20 08:05:30;;;;;;;4.70;1.90;;;;;;;;;;5012224;28;20036;-65
2022/06/20 08:08:04;;;;;;;2.47;1.80;;;;;;;;;;5012423;28;20024;-65
2022/06/20 08:10:37;;;;;;;3.20;1.73;;;;;;;;;;5012664;28;20363;-65
2022/06/20 08:13:07;;;;;;;5.38;1.70;;;;;;;;;;5012473;28;20143;-65
2022/06/20 08:15:57;;;;;;;3.75;1.80;;;;;;;;;;5012215;28;20120;-65
2022/06/20 08:18:24;;;;;;;4.40;2.03;;;;;;;;;;4975899;28;20090;-66
2022/06/20 08:20:56;;;;;;;4.25;2.05;;;;;;;;;;4989709;28;20038;-66
2022/06/20 08:23:27;;;;;;;2.85;1.73;;;;;;;;;;4988785;28;20046;-66
2022/06/20 08:25:54;;;;;;;5.43;1.95;;;;;;;;;;4990460;28;20042;-66
2022/06/20 08:28:22;;;;;;;4.68;1.92;;;;;;;;;;4990197;28;20088;-64
2022/06/20 08:30:49;;;;;;;4.88;2.10;;;;;;;;;;4990577;28;20039;-66
2022/06/20 08:33:18;;;;;;;3.35;2.22;;;;;;;;;;4990363;28;20042;-66
2022/06/20 08:35:47;;;;;;;3.97;1.90;;;;;;;;;;4990370;28;20042;-67
2022/06/20 08:38:16;;;;;;;4.75;1.80;;;;;;;;;;4990126;28;20041;-66
2022/06/20 08:40:45;;;;;;;5.38;1.98;;;;;;;;;;4990536;28;20030;-66
2022/06/20 08:43:17;;;;;;;3.95;1.85;;;;;;;;;;4989969;28;20143;-66
2022/06/20 08:45:49;;;;;;;6.68;1.80;;;;;;;;;;4989869;28;20038;-65
2022/06/20 08:48:15;;;;;;;;;;;;;;;;;;4990398;28;20062;-67
2022/06/20 08:50:59;;;;;;;3.85;1.60;;;;;;;;;;4989592;28;19906;-67
2022/06/20 08:53:31;;;;;;;2.35;1.73;;;;;;;;;;4989697;28;20116;-66
2022/06/20 08:55:58;;;;;;;6.40;2.25;;;;;;;;;;5006255;28;20054;-67
2022/06/20 08:58:37;;;;;;;3.45;2.10;;;;;;;;;;5011990;28;20097;-67
2022/06/20 09:01:06;;;;;;;6.38;2.10;;;;;;;;;;5011815;28;20029;-67
2022/06/20 09:03:35;;;;;;;3.65;1.85;;;;;;;;;;5011599;28;20401;-67
2022/06/20 09:06:22;;;;;;;4.53;1.95;;;;;;;;;;5010610;28;20386;-67
2022/06/20 09:08:54;;;;;;;4.45;1.90;;;;;;;;;;5011597;28;20695;-67
2022/06/20 09:11:27;;;;;;;4.30;1.80;;;;;;;;;;5011959;28;20443;-67
2022/06/20 09:13:59;;;;;;;2.53;1.70;;;;;;;;;;5011212;28;20097;-68
2022/06/20 09:16:28;;;;;;;3.22;2.20;;;;;;;;;;5011524;28;20026;-68
2022/06/20 09:19:01;;;;;;;2.67;1.50;;;;;;;;;;5011599;28;20124;-65
2022/06/20 09:21:37;;;;;;;2.72;1.60;;;;;;;;;;5011724;28;20037;-68
2022/06/20 09:24:30;;;;;;;3.35;1.80;;;;;;;;;;5011764;28;20034;-68
2022/06/20 09:27:08;;;;;;;4.00;1.80;;;;;;;;;;5011220;28;20022;-67
2022/06/20 09:29:37;;;;;;;4.70;1.88;;;;;;;;;;5011153;28;20026;-67
2022/06/20 09:32:06;;;;;;;2.35;1.88;;;;;;;;;;5011641;28;20038;-67
2022/06/20 09:34:35;;;;;;;3.47;1.90;;;;;;;;;;5011410;28;20045;-67
2022/06/20 09:37:25;;;;;;;3.20;1.98;;;;;;;;;;5011631;28;20076;-68
2022/06/20 09:40:06;;;;;;;3.55;1.90;;;;;;;;;;5011274;28;20049;-68
2022/06/20 09:42:51;;;;;;;3.72;1.92;;;;;;;;;;5011356;28;20026;-67
2022/06/20 09:45:31;;;;;;;2.88;1.95;;;;;;;;;;5011310;28;20049;-67
2022/06/20 09:48:15;;;;;;;3.03;2.00;;;;;;;;;;5011478;28;20030;-67
2022/06/20 09:50:47;;;;;;;4.30;1.95;;;;;;;;;;5011394;28;20056;-67
2022/06/20 09:53:32;;;;;;;2.83;2.30;;;;;;;;;;5011250;28;20030;-66
2022/06/20 09:56:13;;;;;;;3.78;2.05;;;;;;;;;;5011246;28;20030;-66
2022/06/20 09:58:53;;;;;;;4.38;1.80;;;;;;;;;;5011285;28;20478;-66
2022/06/20 10:01:34;;;;;;;3.30;1.95;;;;;;;;;;5012428;28;20030;-66
2022/06/20 10:04:10;;;;;;;3.53;2.03;;;;;;;;;;5014447;28;20037;-65
2022/06/20 10:06:56;;;;;;;4.75;2.70;;;;;;;;;;5014681;28;20018;-67
2022/06/20 10:09:34;;;;;;;2.20;1.90;;;;;;;;;;5014505;28;20026;-67
2022/06/20 10:12:09;;;;;;;3.38;2.20;;;;;;;;;;5014621;28;20034;-67
2022/06/20 10:14:45;;;;;;;4.38;1.88;;;;;;;;;;5012549;28;20450;-69
2022/06/20 10:17:18;;;;;;;3.30;1.80;;;;;;;;;;5014076;28;20053;-66
2022/06/20 10:19:56;;;;;;;3.70;2.22;;;;;;;;;;5014439;28;20040;-67
2022/06/20 10:22:50;;;;;;;2.47;1.98;;;;;;;;;;5014465;28;20108;-68
2022/06/20 10:25:16;;;;;;;2.85;2.00;;;;;;;;;;5014112;28;20032;-67
2022/06/20 10:27:51;;;;;;;2.80;1.88;;;;;;;;;;5014176;28;20032;-69
2022/06/20 10:30:40;;;;;;;4.28;2.03;;;;;;;;;;5014261;28;20029;-68
2022/06/20 10:33:25;;;;;;;6.10;1.77;;;;;;;;;;5013995;28;20077;-66
2022/06/20 10:35:54;;;;;;;2.83;2.00;;;;;;;;;;5014658;28;20222;-69
2022/06/20 10:38:35;;;;;;;3.60;1.92;;;;;;;;;;5013832;28;20033;-67
2022/06/20 10:41:09;;;;;;;4.83;2.17;;;;;;;;;;5014129;28;20026;-69
2022/06/20 10:43:44;;;;;;;3.20;1.85;;;;;;;;;;5013808;28;20026;-66
2022/06/20 10:46:10;;;;;;;4.43;2.10;;;;;;;;;;5029441;28;20040;-66
2022/06/20 10:48:55;;;;;;;5.28;2.15;;;;;;;;;;5033484;28;20112;-66
2022/06/20 10:51:21;;;;;;;3.05;2.15;;;;;;;;;;5033518;28;20036;-67
2022/06/20 10:53:53;;;;;;;3.65;1.83;;;;;;;;;;5033306;28;20032;-68
2022/06/20 10:56:48;;;;;;;3.55;1.90;;;;;;;;;;5033234;28;20064;-66
2022/06/20 10:59:14;;;;;;;4.00;1.90;;;;;;;;;;4990900;28;20475;-66
2022/06/20 11:02:00;;;;;;;4.75;2.00;;;;;;;;;;4990973;28;20109;-66
2022/06/20 11:04:29;;;;;;;2.30;1.95;;;;;;;;;;4984612;28;20039;-66
2022/06/20 11:07:07;;;;;;;3.63;1.90;;;;;;;;;;4991216;28;20116;-66
2022/06/20 11:09:39;;;;;;;3.50;1.85;;;;;;;;;;4990726;28;20102;-67
2022/06/20 11:12:05;;;;;;;6.53;2.03;;;;;;;;;;4974177;28;20043;-67
2022/06/20 11:14:51;;;;;;;3.72;2.17;;;;;;;;;;4990111;28;20081;-66
2022/06/20 11:17:40;;;;;;;2.95;1.67;;;;;;;;;;4990612;28;20038;-66
2022/06/20 11:20:16;;;;;;;2.55;1.85;;;;;;;;;;4952341;29;20083;-65
2022/06/20 11:22:43;;;;;;;5.55;2.38;;;;;;;;;;4952281;29;20135;-67
2022/06/20 11:25:18;;;;;;;8.23;2.10;;;;;;;;;;4952372;29;20117;-67
2022/06/20 11:27:53;;;;;;;4.18;2.15;;;;;;;;;;4952614;29;20451;-67
2022/06/20 11:30:23;;;;;;;6.18;2.33;;;;;;;;;;4952501;29;20066;-65
2022/06/20 11:33:18;;;;;;;4.60;2.10;;;;;;;;;;4952281;29;20487;-66
2022/06/20 11:35:47;;;;;;;4.78;1.98;;;;;;;;;;4932475;29;20052;-66
2022/06/20 11:38:18;;;;;;;5.63;2.08;;;;;;;;;;4933094;29;20032;-66
2022/06/20 11:40:44;;;;;;;2.47;1.90;;;;;;;;;;4933572;29;20040;-67
2022/06/20 11:43:16;;;;;;;3.92;2.20;;;;;;;;;;4933285;29;20035;-66
2022/06/20 11:45:42;;;;;;;;;;;;;;;;;;4933445;29;20128;-67
2022/06/20 11:48:29;;;;;;;3.28;2.20;;;;;;;;;;4932835;29;20391;-66
2022/06/20 11:51:00;;;;;;;4.95;2.13;;;;;;;;;;4914154;29;20083;-65
2022/06/20 11:53:26;;;;;;;;;;;;;;;;;;4914906;29;20052;-65
2022/06/20 11:55:55;;;;;;;3.47;1.90;;;;;;;;;;4914079;29;19935;-64
2022/06/20 11:58:33;;;;;;;4.90;2.03;;;;;;;;;;4914450;29;20460;-64
2022/06/20 12:01:03;;;;;;;2.53;2.10;;;;;;;;;;4914543;29;20732;-64
2022/06/20 12:03:48;;;;;;;3.53;2.10;;;;;;;;;;4914912;29;20503;-64
2022/06/20 12:06:26;;;;;;;3.38;2.20;;;;;;;;;;4914002;29;20051;-65
2022/06/20 12:09:05;;;;;;;3.47;2.10;;;;;;;;;;4913462;29;20032;-64
2022/06/20 12:11:31;;;;;;;6.00;1.90;;;;;;;;;;4927142;28;20410;-65
2022/06/20 12:13:57;;;;;;;4.07;2.38;;;;;;;;;;4970537;28;20043;-64
2022/06/20 12:16:52;;;;;;;3.30;1.95;;;;;;;;;;4970522;28;20043;-65
2022/06/20 12:25:17;;;;;;;2.60;1.80;;;;;;;;;;4912670;29;20047;-64
2022/06/20 12:27:46;;;;;;;14.52;2.47;;;;;;;;;;4927543;29;20035;-64
2022/06/20 12:30:13;;;;;;;4.10;2.13;;;;;;;;;;4950907;29;20472;-63
2022/06/20 12:32:41;;;;;;;6.28;2.10;;;;;;;;;;4951602;29;20613;-63
2022/06/20 12:35:26;;;;;;;3.70;1.92;;;;;;;;;;4951095;29;20144;-66
2022/06/20 12:37:56;;;;;;;5.90;2.00;;;;;;;;;;4951272;29;20035;-63
2022/06/20 12:40:25;;;;;;;4.43;1.80;;;;;;;;;;4950979;28;20407;-63
2022/06/20 12:42:58;;;;;;;4.88;1.98;;;;;;;;;;4950703;29;20134;-64
2022/06/20 12:45:26;;;;;;;5.93;2.15;;;;;;;;;;4949806;29;20558;-66
2022/06/20 12:48:11;;;;;;;4.63;2.00;;;;;;;;;;4951352;29;20039;-65
2022/06/20 12:50:44;;;;;;;5.35;2.30;;;;;;;;;;4951538;29;20078;-65
2022/06/20 12:53:17;;;;;;;3.65;2.10;;;;;;;;;;4951447;29;20146;-66
2022/06/20 12:55:46;;;;;;;4.90;2.10;;;;;;;;;;4950989;29;20063;-65
2022/06/20 12:58:18;;;;;;;5.22;2.15;;;;;;;;;;4950922;28;20034;-65
2022/06/20 13:00:44;;;;;;;;;;;;;;;;;;4977994;28;20038;-66
2022/06/20 13:03:28;;;;;;;2.83;1.90;;;;;;;;;;5011803;28;19936;-65
2022/06/20 13:06:19;;;;;;;3.00;1.80;;;;;;;;;;5011657;28;20040;-64
2022/06/20 13:09:00;;;;;;;6.13;2.47;;;;;;;;;;5011494;28;20037;-66
2022/06/20 13:11:29;;;;;;;6.40;2.10;;;;;;;;;;5011681;28;20092;-66
2022/06/20 13:14:14;;;;;;;8.60;2.28;;;;;;;;;;5010526;28;20026;-68
2022/06/20 13:16:46;;;;;;;6.47;2.05;;;;;;;;;;5011743;28;20096;-65
2022/06/20 13:19:22;;;;;;;9.35;2.47;;;;;;;;;;5009723;28;20401;-65
2022/06/20 13:21:48;;;;;;;10.05;2.38;;;;;;;;;;5011506;28;20034;-65
2022/06/20 13:24:28;;;;;;;6.80;2.30;;;;;;;;;;5011226;28;20044;-65
2022/06/20 13:27:07;;;;;;;5.22;2.47;;;;;;;;;;5009053;28;20385;-66
2022/06/20 13:29:38;;;;;;;7.80;2.25;;;;;;;;;;5010912;28;20026;-66
2022/06/20 13:32:10;;;;;;;4.17;2.30;;;;;;;;;;5011125;28;20037;-65
2022/06/20 13:35:05;;;;;;;9.18;1.90;;;;;;;;;;5011252;28;20318;-65
2022/06/20 13:37:46;;;;;;;4.40;2.20;;;;;;;;;;5012193;28;20029;-64
2022/06/20 13:40:18;;;;;;;4.00;2.07;;;;;;;;;;5012939;28;20034;-65
2022/06/20 13:42:48;;;;;;;4.38;2.20;;;;;;;;;;5012471;28;20042;-65
2022/06/20 13:45:27;;;;;;;2.55;1.90;;;;;;;;;;5012717;28;20069;-64
2022/06/20 13:47:59;;;;;;;3.85;2.13;;;;;;;;;;5012696;28;20029;-65
2022/06/20 13:50:34;;;;;;;4.90;1.90;;;;;;;;;;5012661;28;20151;-65
2022/06/20 13:53:16;;;;;;;7.10;2.40;;;;;;;;;;5012573;28;20034;-64
2022/06/20 13:55:50;;;;;;;3.20;1.80;;;;;;;;;;5011915;28;20046;-66
2022/06/20 13:58:36;;;;;;;5.60;2.40;;;;;;;;;;5010472;28;20389;-66
2022/06/20 14:01:08;;;;;;;9.18;2.30;;;;;;;;;;5004847;28;20041;-64
2022/06/20 14:03:36;;;;;;;5.88;2.00;;;;;;;;;;5011820;28;20030;-66
2022/06/20 14:06:07;;;;;;;4.20;2.05;;;;;;;;;;5012076;28;20121;-66
2022/06/20 14:08:33;;;;;;;4.70;1.92;;;;;;;;;;5011984;28;20042;-65
2022/06/20 14:11:01;;;;;;;3.53;1.85;;;;;;;;;;5011651;28;20835;-66
2022/06/20 14:13:53;;;;;;;4.07;1.95;;;;;;;;;;5018508;28;20049;-64
2022/06/20 14:16:20;;;;;;;;;;;;;;;;;;5032334;28;20104;-63
2022/06/20 14:18:57;;;;;;;3.78;1.90;;;;;;;;;;5025805;28;19909;-66
2022/06/20 14:21:31;;;;;;;5.40;2.13;;;;;;;;;;5031727;28;20041;-65
2022/06/20 14:23:57;;;;;;;6.85;2.25;;;;;;;;;;5022936;28;20088;-66
2022/06/20 14:26:35;;;;;;;3.13;1.60;;;;;;;;;;5034080;28;20033;-64
2022/06/20 14:29:21;;;;;;;4.75;1.90;;;;;;;;;;5033916;28;20071;-65
2022/06/20 14:31:57;;;;;;;8.45;2.03;;;;;;;;;;5032780;28;20401;-66
2022/06/20 14:35:20;;;;;;;4.88;2.00;;;;;;;;;;5032303;28;20064;-63
2022/06/20 14:37:29;;;;;;;4.70;2.00;;;;;;;;;;5031391;28;20059;-69
2022/06/20 14:39:58;;;;;;;4.07;2.17;;;;;;;;;;5032676;28;20017;-65
2022/06/20 14:42:27;;;;;;;2.78;1.80;;;;;;;;;;5029149;28;20061;-64
2022/06/20 14:44:56;;;;;;;4.15;1.85;;;;;;;;;;5032545;28;20033;-65
2022/06/20 14:47:22;;;;;;;3.47;1.90;;;;;;;;;;5031731;28;20021;-65
2022/06/20 14:49:56;;;;;;;2.28;1.70;;;;;;;;;;5031278;28;20095;-65
2022/06/20 14:52:22;;;;;;;3.78;1.80;;;;;;;;;;5029905;28;20030;-64
2022/06/20 14:55:07;;;;;;;4.82;2.00;;;;;;;;;;5032477;28;20488;-64
2022/06/20 14:57:48;;;;;;;4.07;1.90;;;;;;;;;;5031504;28;20030;-64
2022/06/20 15:00:24;;;;;;;2.40;1.90;;;;;;;;;;5030754;28;20095;-66
2022/06/20 15:02:53;;;;;;;35.55;4.47;;;;;;;;;;5031708;28;20053;-64
2022/06/20 15:05:39;;;;;;;9.95;2.63;;;;;;;;;;5031846;28;20036;-65
2022/06/20 15:08:13;;;;;;;5.25;1.80;;;;;;;;;;5031644;28;20033;-65
2022/06/20 15:10:49;;;;;;;6.18;2.10;;;;;;;;;;5031981;28;20025;-64
2022/06/20 15:13:38;;;;;;;4.03;1.88;;;;;;;;;;5030804;28;20484;-65
2022/06/20 15:16:15;;;;;;;3.22;1.77;;;;;;;;;;5026160;28;20092;-65
2022/06/20 15:18:49;;;;;;;4.88;1.90;;;;;;;;;;5030725;28;20045;-64
2022/06/20 15:21:18;;;;;;;3.13;2.10;;;;;;;;;;5030106;28;20034;-64
2022/06/20 15:24:04;;;;;;;9.18;2.55;;;;;;;;;;5031756;28;20518;-64
2022/06/20 15:26:35;;;;;;;7.38;2.30;;;;;;;;;;5032187;28;20065;-64
2022/06/20 15:29:06;;;;;;;8.13;2.47;;;;;;;;;;5032344;28;20453;-65
2022/06/20 15:31:34;;;;;;;7.53;2.03;;;;;;;;;;5031235;28;20040;-65
2022/06/20 15:34:18;;;;;;;4.22;1.83;;;;;;;;;;5031700;28;20021;-64
2022/06/20 15:36:45;;;;;;;3.58;1.67;;;;;;;;;;5031724;28;20500;-64
2022/06/20 15:39:12;;;;;;;4.95;1.98;;;;;;;;;;5031868;28;20032;-64
2022/06/20 15:45:08;;;;;;;2.13;1.83;;;;;;;;;;5020834;28;20246;-67
2022/06/20 15:47:46;;;;;;;4.20;1.90;;;;;;;;;;5011774;28;20046;-68
2022/06/20 15:50:12;;;;;;;4.80;2.03;;;;;;;;;;5012741;28;20397;-68
2022/06/20 15:52:38;;;;;;;6.93;2.42;;;;;;;;;;5024387;28;20037;-67
2022/06/20 15:55:04;;;;;;;3.22;1.85;;;;;;;;;;5029662;28;20049;-67
2022/06/20 15:57:30;;;;;;;4.07;2.08;;;;;;;;;;5027936;28;20025;-66
2022/06/20 16:03:09;;;;;;;4.68;2.50;;;;;;;;;;5016048;28;20389;-68
2022/06/20 16:05:43;;;;;;;8.00;2.88;;;;;;;;;;5009614;28;20034;-68
2022/06/20 16:08:15;;;;;;;6.32;2.83;;;;;;;;;;5009715;28;20041;-68
2022/06/20 16:10:48;;;;;;;11.73;2.20;;;;;;;;;;5009362;28;20030;-66
2022/06/20 16:13:19;;;;;;;8.93;2.38;;;;;;;;;;5007896;28;20037;-66
2022/06/20 16:15:46;;;;;;;9.35;2.67;;;;;;;;;;4991783;28;20136;-66
2022/06/20 16:18:12;;;;;;;4.65;2.35;;;;;;;;;;5009038;28;20029;-72
2022/06/20 16:20:40;;;;;;;14.00;2.72;;;;;;;;;;5014762;28;20049;-65
2022/06/20 16:23:26;;;;;;;8.30;2.70;;;;;;;;;;5043237;28;20063;-63
2022/06/20 16:26:06;;;;;;;6.55;2.40;;;;;;;;;;5048481;28;20067;-67
2022/06/20 16:28:34;;;;;;;4.60;2.58;;;;;;;;;;5048834;28;20033;-64
2022/06/20 16:31:05;;;;;;;4.85;2.40;;;;;;;;;;5048709;28;20379;-66
2022/06/20 16:33:38;;;;;;;12.80;2.53;;;;;;;;;;5048943;28;20102;-64
2022/06/20 16:36:18;;;;;;;7.10;2.70;;;;;;;;;;5048922;28;20091;-66
2022/06/20 16:38:44;;;;;;;7.97;2.60;;;;;;;;;;5047329;28;20041;-65
2022/06/20 16:41:13;;;;;;;10.02;2.53;;;;;;;;;;5011526;28;20493;-66
2022/06/20 16:43:43;;;;;;;6.53;2.60;;;;;;;;;;5011451;28;20105;-64
2022/06/20 16:46:14;;;;;;;6.28;2.50;;;;;;;;;;5011443;28;20030;-65
2022/06/20 16:48:40;;;;;;;5.25;2.33;;;;;;;;;;5011289;28;20084;-64
2022/06/20 16:51:15;;;;;;;4.55;2.50;;;;;;;;;;5011488;28;20417;-67
2022/06/20 16:53:47;;;;;;;6.07;2.47;;;;;;;;;;5011467;28;20041;-65
2022/06/20 16:56:15;;;;;;;6.07;2.42;;;;;;;;;;5011350;28;20042;-65
2022/06/20 16:59:00;;;;;;;10.32;2.90;;;;;;;;;;5011116;28;20046;-63
2022/06/20 17:01:28;;;;;;;6.40;2.60;;;;;;;;;;5010889;28;20381;-64
2022/06/20 17:03:58;;;;;;;7.05;2.80;;;;;;;;;;5011080;28;20025;-66
2022/06/20 17:06:29;;;;;;;8.18;2.70;;;;;;;;;;5011420;28;20041;-64
2022/06/20 17:09:07;;;;;;;7.28;2.80;;;;;;;;;;5011443;28;20029;-64
2022/06/20 17:11:45;;;;;;;5.68;2.35;;;;;;;;;;5011098;28;20030;-64
2022/06/20 17:14:23;;;;;;;6.65;2.60;;;;;;;;;;5020079;28;20060;-66
2022/06/20 17:16:52;;;;;;;7.50;2.40;;;;;;;;;;5030893;28;20068;-65
2022/06/20 17:19:24;;;;;;;5.88;2.83;;;;;;;;;;5030284;28;20108;-65
2022/06/20 17:22:02;;;;;;;5.07;2.45;;;;;;;;;;5029987;28;20029;-67
2022/06/20 17:24:35;;;;;;;4.13;2.60;;;;;;;;;;5030567;28;20029;-65
2022/06/20 17:27:07;;;;;;;5.82;2.63;;;;;;;;;;5031171;28;20049;-65
2022/06/20 17:29:33;;;;;;;4.35;2.40;;;;;;;;;;5030643;28;20396;-65
2022/06/20 17:32:09;;;;;;;6.07;2.72;;;;;;;;;;5030896;28;20022;-65
2022/06/20 17:34:52;;;;;;;7.40;2.78;;;;;;;;;;5030664;28;20107;-66
2022/06/20 17:37:18;;;;;;;;;;;;;;;;;;5031209;28;20044;-66
2022/06/20 17:39:51;;;;;;;3.55;2.75;;;;;;;;;;5030597;28;19913;-66
2022/06/20 17:42:25;;;;;;;4.68;2.90;;;;;;;;;;5030464;28;20025;-67
2022/06/20 17:44:51;;;;;;;4.53;3.20;;;;;;;;;;5030836;28;20361;-65
2022/06/20 17:47:24;;;;;;;5.18;2.65;;;;;;;;;;5030474;28;20036;-63
2022/06/20 17:50:11;;;;;;;7.72;3.47;;;;;;;;;;5030599;28;20041;-63
2022/06/20 17:52:40;;;;;;;7.57;3.53;;;;;;;;;;5030682;28;20408;-68
2022/06/20 17:55:12;;;;;;;4.07;2.58;;;;;;;;;;5030442;28;20496;-64
2022/06/20 17:57:43;;;;;;;5.80;3.10;;;;;;;;;;5030553;28;20049;-64
2022/06/20 18:00:15;;;;;;;7.30;3.38;;;;;;;;;;5030877;28;20029;-65
2022/06/20 18:02:41;;;;;;;;;;;;;;;;;;5031145;28;20044;-64
2022/06/20 18:05:10;;;;;;;5.38;3.08;;;;;;;;;;5030806;28;19909;-64
2022/06/20 18:07:37;;;;;;;5.57;3.10;;;;;;;;;;5030941;28;20013;-65
2022/06/20 18:10:07;;;;;;;4.68;2.83;;;;;;;;;;5030571;28;20558;-66
2022/06/20 18:12:51;;;;;;;7.63;2.97;;;;;;;;;;5030258;28;20026;-65
2022/06/20 18:15:19;;;;;;;12.65;6.53;;;;;;;;;;5030168;28;20065;-65
2022/06/20 18:17:45;;;;;;;7.53;5.07;;;;;;;;;;5030497;28;20076;-66
2022/06/20 18:20:18;;;;;;;8.98;5.00;;;;;;;;;;5030374;28;20025;-65
2022/06/20 18:23:19;;;;;;;8.32;5.32;;;;;;;;;;5032138;28;20109;-65
2022/06/20 18:25:51;;;;;;;7.75;4.32;;;;;;;;;;5011965;28;20038;-66
2022/06/20 18:28:18;;;;;;;9.32;4.65;;;;;;;;;;5011600;28;20030;-66
2022/06/20 18:30:52;;;;;;;7.03;4.43;;;;;;;;;;5010848;28;20061;-65
2022/06/20 18:33:23;;;;;;;8.73;3.65;;;;;;;;;;5010164;28;20176;-65
2022/06/20 18:35:51;;;;;;;7.53;4.05;;;;;;;;;;5010488;28;20042;-65
2022/06/20 18:38:20;;;;;;;8.25;4.13;;;;;;;;;;5010991;28;20665;-65
2022/06/20 18:40:49;;;;;;;8.35;3.58;;;;;;;;;;5011302;28;20397;-65
2022/06/20 18:43:17;;;;;;;9.75;3.60;;;;;;;;;;5010393;28;20030;-66
2022/06/20 18:45:45;;;;;;;10.30;4.93;;;;;;;;;;5010361;28;20093;-66
2022/06/20 18:48:29;;;;;;;7.07;4.40;;;;;;;;;;5010516;28;20079;-65
2022/06/20 18:51:02;;;;;;;6.95;3.88;;;;;;;;;;5010450;28;20112;-65
2022/06/20 18:53:57;;;;;;;6.25;3.85;;;;;;;;;;5007595;28;20490;-66
2022/06/20 18:56:39;;;;;;;6.20;3.85;;;;;;;;;;4951453;28;20087;-65
2022/06/20 18:59:07;;;;;;;7.65;3.75;;;;;;;;;;4952932;28;20058;-65
2022/06/20 19:01:54;;;;;;;8.35;4.15;;;;;;;;;;4952824;29;20058;-65
2022/06/20 19:04:39;;;;;;;7.53;3.90;;;;;;;;;;4952235;29;20110;-66
2022/06/20 19:07:14;;;;;;;9.23;4.60;;;;;;;;;;4953105;29;20062;-65
2022/06/20 19:09:40;;;;;;;8.10;4.15;;;;;;;;;;4951485;29;20433;-65
2022/06/20 19:12:11;;;;;;;7.53;4.22;;;;;;;;;;4952189;29;20086;-65
2022/06/20 19:14:49;;;;;;;7.72;5.10;;;;;;;;;;4952407;29;20058;-66
2022/06/20 19:17:18;;;;;;;9.68;4.43;;;;;;;;;;4952736;29;20050;-66
2022/06/20 19:19:44;;;;;;;9.18;3.97;;;;;;;;;;4951717;29;20035;-65
2022/06/20 19:22:30;;;;;;;7.78;3.42;;;;;;;;;;4951483;29;20035;-65
2022/06/20 19:25:00;;;;;;;6.38;3.35;;;;;;;;;;4950250;28;20043;-65
2022/06/20 19:27:37;;;;;;;6.60;3.83;;;;;;;;;;4951066;29;20067;-66
2022/06/20 19:30:09;;;;;;;5.32;3.47;;;;;;;;;;4950465;29;20051;-65
2022/06/20 19:32:44;;;;;;;8.38;3.53;;;;;;;;;;4966211;28;20459;-65
2022/06/20 19:35:13;;;;;;;11.43;3.58;;;;;;;;;;4989417;28;21107;-65
2022/06/20 19:37:40;;;;;;;6.97;3.35;;;;;;;;;;4979951;28;20064;-66
2022/06/20 19:40:26;;;;;;;8.35;3.25;;;;;;;;;;4989800;28;20830;-62
2022/06/20 19:42:56;;;;;;;5.10;3.13;;;;;;;;;;4990940;28;20084;-66
2022/06/20 19:45:25;;;;;;;5.85;3.13;;;;;;;;;;4989358;28;20026;-66
2022/06/20 19:47:55;;;;;;;8.15;3.15;;;;;;;;;;4987288;28;20035;-65
2022/06/20 19:50:24;;;;;;;5.90;2.97;;;;;;;;;;4986151;28;20073;-66
2022/06/20 19:52:53;;;;;;;6.85;3.00;;;;;;;;;;4987829;28;20494;-65
2022/06/20 19:55:26;;;;;;;7.65;2.88;;;;;;;;;;4989767;28;20050;-65
2022/06/20 19:58:10;;;;;;;7.90;2.92;;;;;;;;;;4990344;28;20026;-65
2022/06/20 20:00:41;;;;;;;7.53;3.20;;;;;;;;;;4990174;28;20094;-65
2022/06/20 20:03:10;;;;;;;6.22;3.08;;;;;;;;;;5029811;28;20425;-65
2022/06/20 20:05:39;;;;;;;4.63;2.80;;;;;;;;;;5031353;28;20052;-66
2022/06/20 20:08:06;;;;;;;5.25;2.72;;;;;;;;;;5031188;28;20024;-66
2022/06/20 20:10:38;;;;;;;6.97;2.97;;;;;;;;;;5031478;28;20038;-65
2022/06/20 20:13:07;;;;;;;7.28;2.88;;;;;;;;;;5031375;28;20029;-65
2022/06/20 20:15:33;;;;;;;3.78;2.47;;;;;;;;;;5030411;28;20504;-66
2022/06/20 20:18:18;;;;;;;6.63;3.10;;;;;;;;;;5031755;28;20029;-66
2022/06/20 20:21:12;;;;;;;13.65;4.03;;;;;;;;;;5031441;28;20037;-65
2022/06/20 20:23:44;;;;;;;6.05;2.42;;;;;;;;;;5030938;28;20041;-66
2022/06/20 20:26:22;;;;;;;10.35;2.85;;;;;;;;;;5031132;28;20029;-65
2022/06/20 20:29:06;;;;;;;7.13;3.72;;;;;;;;;;5031574;28;20088;-65
2022/06/20 20:31:35;;;;;;;8.63;2.80;;;;;;;;;;5031047;28;20032;-65
2022/06/20 20:34:20;;;;;;;6.70;2.80;;;;;;;;;;5031685;28;20032;-65
2022/06/20 20:36:52;;;;;;;3.65;2.30;;;;;;;;;;5031704;28;20034;-65
2022/06/20 20:39:30;;;;;;;6.03;2.83;;;;;;;;;;5031558;28;20033;-66
2022/06/20 20:42:15;;;;;;;6.32;3.03;;;;;;;;;;5031751;28;20052;-65
2022/06/20 20:45:01;;;;;;;7.68;3.40;;;;;;;;;;5030599;28;20039;-66
2022/06/20 20:47:34;;;;;;;7.25;4.00;;;;;;;;;;5009515;28;20041;-65
2022/06/20 20:50:03;;;;;;;9.07;6.15;;;;;;;;;;5009329;28;20577;-64
2022/06/20 20:52:32;;;;;;;13.52;7.65;;;;;;;;;;5009445;28;20457;-66
2022/06/20 20:54:59;;;;;;;9.68;4.35;;;;;;;;;;5008913;28;20069;-66